• Join FlightAware (Why Join?)
  • Login
  • US Flag 
05:36AM EST


 

Airport Tracker/Info


-or-


 

Live Flight TrackerFlight Track Log ✈ JZA8198 ✈ 14-Jun-2013 ✈ CYVR - CYKA

Flight Track Log - Related Links

Times and Time Zones

All times are in EDT time to prevent confusion due to time zone crossing. See the JZA8198 flight status page for this flight to view local times or setup timezone preferences in your user account.

Time Position Orientation Groundspeed Altitude Reporting Facility
EDT Latitude Longitude Course Direction KTS MPH feet Rate Location/Type
01:48AM 49.1667 -123.2333 45° Northeast 140 161 1,700  Level Vancouver Center
01:49AM 49.1833 -123.2833 297° West 150 173 3,300 1,500 Climbing Vancouver Center
01:50AM 49.2167 -123.2833 360° North 140 161 4,800 1,440 Climbing Vancouver Center
01:51AM 49.2500 -123.2333 44° Northeast 150 173 6,200 1,200 Climbing Vancouver Center
01:52AM 49.4367 -122.7813 46° Northeast  Level FlightAware Approximate
01:52AM 49.2833 -123.1833 44° Northeast 160 184 7,200  Level Vancouver Center
01:53AM 49.4670 -122.7161 45° Northeast  Level FlightAware Approximate
01:53AM 49.3167 -123.1333 44° Northeast 170 196 8,100  Level Vancouver Center
01:54AM 49.3500 -123.0833 44° Northeast 180 207 9,100 900 Climbing Vancouver Center
01:55AM 49.3833 -123.0333 44° Northeast 180 207 10,000 900 Climbing Vancouver Center
01:56AM 49.4333 -122.9833 33° Northeast 180 207 10,900 840 Climbing Vancouver Center
01:57AM 49.4667 -122.9333 44° Northeast 190 219 11,700 780 Climbing Vancouver Center
01:58AM 49.5000 -122.8667 52° Northeast 190 219 12,500 840 Climbing Vancouver Center
01:59AM 49.5500 -122.8000 41° Northeast 190 219 13,400 840 Climbing Vancouver Center
02:00AM 49.5833 -122.7500 44° Northeast 200 230 14,200 780 Climbing Vancouver Center
02:01AM 49.6333 -122.6833 41° Northeast 200 230 15,000 360 Climbing Vancouver Center
02:02AM 49.6667 -122.6167 52° Northeast 220 253 15,000  Level Vancouver Center
02:03AM 49.7167 -122.5333 47° Northeast 250 288 15,000  Level Vancouver Center
02:04AM 49.7833 -122.4500 39° Northeast 260 299 15,100  Climbing Vancouver Center
02:05AM 49.8333 -122.3833 41° Northeast 270 311 15,100  Level Vancouver Center
02:06AM 49.8833 -122.3000 47° Northeast 270 311 15,100  Level Vancouver Center
02:07AM 49.9333 -122.2167 47° Northeast 270 311 15,100  Level Vancouver Center
02:08AM 49.9833 -122.1333 47° Northeast 270 311 15,100  Level Vancouver Center
02:09AM 50.0500 -122.0333 44° Northeast 270 311 15,100  Level Vancouver Center
02:10AM 50.1000 -121.9833 33° Northeast 270 311 15,100 -60 Level Vancouver Center
02:11AM 50.1333 -121.9000 58° Northeast 270 311 15,000 -60 Descending Vancouver Center
02:12AM 50.2000 -121.7833 48° Northeast 270 311 15,000  Level Vancouver Center
02:13AM 50.2500 -121.7167 40° Northeast 270 311 15,000  Level Vancouver Center
02:14AM 50.3000 -121.6333 47° Northeast 270 311 15,000  Level Vancouver Center
02:15AM 50.3500 -121.5500 47° Northeast 270 311 15,000  Level Vancouver Center
02:16AM 50.4167 -121.4667 39° Northeast 270 311 15,000  Level Vancouver Center
02:17AM 50.4667 -121.3833 47° Northeast 260 299 15,000 -600 Level Vancouver Center
02:18AM 50.5167 -121.3000 47° Northeast 250 288 13,800 -1,140 Descending Vancouver Center
02:19AM 50.5667 -121.2833 12° North 230 265 12,800 -900 Descending Vancouver Center
02:20AM 50.6167 -121.2167 40° Northeast 230 265 12,000 -780 Descending Vancouver Center
02:21AM 50.6667 -121.1667 32° Northeast 210 242 11,300 -900 Descending Vancouver Center
02:22AM 50.7167 -121.1333 23° Northeast 190 219 10,300 -1,200 Descending Vancouver Center
02:23AM 50.7667 -121.1000 23° Northeast 180 207 9,000 -1,200 Descending Vancouver Center
02:24AM 50.8000 -121.0500 43° Northeast 210 242 8,000 -540 Descending Vancouver Center
02:25AM 50.8500 -121.0000 32° Northeast 210 242 8,000  Level Vancouver Center
02:26AM 50.8333 -120.9167 108° East 220 253 8,000  Level Vancouver Center
02:27AM 50.7833 -120.9000 168° South 220 253 8,000 -300 Level Vancouver Center
02:28AM 50.7500 -120.8500 136° Southeast 210 242 7,500 -1,380 Descending Vancouver Center
02:29AM 50.7333 -120.7333 103° East 220 253 5,300 -1,920 Descending Vancouver Center
02:30AM 50.7167 -120.6667 112° Southeast 220 253 3,700 -1,320 Descending Vancouver Center
02:31AM 50.7167 -120.5833 90° East 190 219 2,700 -1,020 Descending Vancouver Center